sensor_id;sensor_type;location;lat;lon;timestamp;temperature;humidity
21698;DHT22;11010;49.548;11.926;2023-04-28T00:01:44;10.00;99.90
21698;DHT22;11010;49.548;11.926;2023-04-28T00:04:11;10.00;99.90
21698;DHT22;11010;49.548;11.926;2023-04-28T00:06:39;10.00;99.90
21698;DHT22;11010;49.548;11.926;2023-04-28T00:09:07;10.10;99.90
21698;DHT22;11010;49.548;11.926;2023-04-28T00:11:37;10.00;99.90
21698;DHT22;11010;49.548;11.926;2023-04-28T00:14:04;10.00;99.90
21698;DHT22;11010;49.548;11.926;2023-04-28T00:16:31;10.00;99.90
21698;DHT22;11010;49.548;11.926;2023-04-28T00:18:59;10.00;99.90
21698;DHT22;11010;49.548;11.926;2023-04-28T00:21:26;10.00;99.90
21698;DHT22;11010;49.548;11.926;2023-04-28T00:23:54;10.00;99.90
21698;DHT22;11010;49.548;11.926;2023-04-28T00:26:22;9.80;99.90
21698;DHT22;11010;49.548;11.926;2023-04-28T00:28:49;9.70;99.90
21698;DHT22;11010;49.548;11.926;2023-04-28T00:31:16;9.80;99.90
21698;DHT22;11010;49.548;11.926;2023-04-28T00:33:43;9.90;99.90
21698;DHT22;11010;49.548;11.926;2023-04-28T00:36:11;10.00;99.90
21698;DHT22;11010;49.548;11.926;2023-04-28T00:38:38;10.00;99.90
21698;DHT22;11010;49.548;11.926;2023-04-28T00:41:05;10.10;99.90
21698;DHT22;11010;49.548;11.926;2023-04-28T00:43:46;10.00;99.90
21698;DHT22;11010;49.548;11.926;2023-04-28T00:46:28;10.00;99.90
21698;DHT22;11010;49.548;11.926;2023-04-28T00:48:56;10.00;99.90
21698;DHT22;11010;49.548;11.926;2023-04-28T00:51:24;10.00;99.90
21698;DHT22;11010;49.548;11.926;2023-04-28T00:53:51;9.90;99.90
21698;DHT22;11010;49.548;11.926;2023-04-28T00:56:18;9.80;99.90
21698;DHT22;11010;49.548;11.926;2023-04-28T00:58:46;9.80;99.90
21698;DHT22;11010;49.548;11.926;2023-04-28T01:01:13;9.90;99.90
21698;DHT22;11010;49.548;11.926;2023-04-28T01:03:41;10.10;99.90
21698;DHT22;11010;49.548;11.926;2023-04-28T01:06:08;10.20;99.90
21698;DHT22;11010;49.548;11.926;2023-04-28T01:08:38;10.00;99.90
21698;DHT22;11010;49.548;11.926;2023-04-28T01:11:12;9.90;99.90
21698;DHT22;11010;49.548;11.926;2023-04-28T01:14:21;10.00;99.90
21698;DHT22;11010;49.548;11.926;2023-04-28T01:16:48;9.90;99.90
21698;DHT22;11010;49.548;11.926;2023-04-28T01:19:19;9.90;99.90
21698;DHT22;11010;49.548;11.926;2023-04-28T01:21:49;9.90;99.90
21698;DHT22;11010;49.548;11.926;2023-04-28T01:24:21;9.70;99.90
21698;DHT22;11010;49.548;11.926;2023-04-28T01:26:49;9.80;99.90
21698;DHT22;11010;49.548;11.926;2023-04-28T01:29:16;9.80;99.90
21698;DHT22;11010;49.548;11.926;2023-04-28T01:31:43;9.50;99.90
21698;DHT22;11010;49.548;11.926;2023-04-28T01:34:10;9.70;99.90
21698;DHT22;11010;49.548;11.926;2023-04-28T01:36:38;9.80;99.90
21698;DHT22;11010;49.548;11.926;2023-04-28T01:39:05;9.80;99.90
21698;DHT22;11010;49.548;11.926;2023-04-28T01:41:32;9.80;99.90
21698;DHT22;11010;49.548;11.926;2023-04-28T01:44:00;9.90;99.90
21698;DHT22;11010;49.548;11.926;2023-04-28T01:46:27;9.90;99.90
21698;DHT22;11010;49.548;11.926;2023-04-28T01:48:57;9.80;99.90
21698;DHT22;11010;49.548;11.926;2023-04-28T01:51:24;9.80;99.90
21698;DHT22;11010;49.548;11.926;2023-04-28T01:53:51;9.70;99.90
21698;DHT22;11010;49.548;11.926;2023-04-28T01:56:18;9.70;99.90
21698;DHT22;11010;49.548;11.926;2023-04-28T01:58:46;9.70;99.90
21698;DHT22;11010;49.548;11.926;2023-04-28T02:01:13;9.70;99.90
21698;DHT22;11010;49.548;11.926;2023-04-28T02:03:41;9.60;99.90
21698;DHT22;11010;49.548;11.926;2023-04-28T02:06:08;9.50;99.90
21698;DHT22;11010;49.548;11.926;2023-04-28T02:08:36;9.60;99.90
21698;DHT22;11010;49.548;11.926;2023-04-28T02:11:03;9.40;99.90
21698;DHT22;11010;49.548;11.926;2023-04-28T02:13:30;9.50;99.90
21698;DHT22;11010;49.548;11.926;2023-04-28T02:16:00;9.50;99.90
21698;DHT22;11010;49.548;11.926;2023-04-28T02:18:28;9.50;99.90
21698;DHT22;11010;49.548;11.926;2023-04-28T02:21:10;9.50;99.90
21698;DHT22;11010;49.548;11.926;2023-04-28T02:23:38;9.50;99.90
21698;DHT22;11010;49.548;11.926;2023-04-28T02:26:06;9.40;99.90
21698;DHT22;11010;49.548;11.926;2023-04-28T02:28:33;9.30;99.90
21698;DHT22;11010;49.548;11.926;2023-04-28T02:33:31;9.50;99.90
21698;DHT22;11010;49.548;11.926;2023-04-28T02:35:59;9.40;99.90
21698;DHT22;11010;49.548;11.926;2023-04-28T02:38:27;9.60;99.90
21698;DHT22;11010;49.548;11.926;2023-04-28T02:41:05;9.60;99.90
21698;DHT22;11010;49.548;11.926;2023-04-28T02:43:32;9.60;99.90
21698;DHT22;11010;49.548;11.926;2023-04-28T02:46:03;9.50;99.90
21698;DHT22;11010;49.548;11.926;2023-04-28T02:48:31;9.60;99.90
21698;DHT22;11010;49.548;11.926;2023-04-28T02:50:59;9.60;99.90
21698;DHT22;11010;49.548;11.926;2023-04-28T02:53:27;9.70;99.90
21698;DHT22;11010;49.548;11.926;2023-04-28T02:55:54;9.60;99.90
21698;DHT22;11010;49.548;11.926;2023-04-28T02:58:21;9.40;99.90
21698;DHT22;11010;49.548;11.926;2023-04-28T03:00:49;9.30;99.90
21698;DHT22;11010;49.548;11.926;2023-04-28T03:03:16;8.80;99.90
21698;DHT22;11010;49.548;11.926;2023-04-28T03:05:44;9.00;99.90
21698;DHT22;11010;49.548;11.926;2023-04-28T03:08:12;9.30;99.90
21698;DHT22;11010;49.548;11.926;2023-04-28T03:10:39;9.40;99.90
21698;DHT22;11010;49.548;11.926;2023-04-28T03:13:06;9.40;99.90
21698;DHT22;11010;49.548;11.926;2023-04-28T03:15:33;9.30;99.90
21698;DHT22;11010;49.548;11.926;2023-04-28T03:18:01;9.30;99.90
21698;DHT22;11010;49.548;11.926;2023-04-28T03:20:28;9.30;99.90
21698;DHT22;11010;49.548;11.926;2023-04-28T03:22:55;9.30;99.90
21698;DHT22;11010;49.548;11.926;2023-04-28T03:25:23;9.40;99.90
21698;DHT22;11010;49.548;11.926;2023-04-28T03:27:51;9.30;99.90
21698;DHT22;11010;49.548;11.926;2023-04-28T03:30:18;9.20;99.90
21698;DHT22;11010;49.548;11.926;2023-04-28T03:32:45;9.30;99.90
21698;DHT22;11010;49.548;11.926;2023-04-28T03:35:13;9.30;99.90
21698;DHT22;11010;49.548;11.926;2023-04-28T03:37:42;9.30;99.90
21698;DHT22;11010;49.548;11.926;2023-04-28T03:40:10;9.20;99.90
21698;DHT22;11010;49.548;11.926;2023-04-28T03:42:55;9.10;99.90
21698;DHT22;11010;49.548;11.926;2023-04-28T03:45:30;9.20;99.90
21698;DHT22;11010;49.548;11.926;2023-04-28T03:47:58;9.30;99.90
21698;DHT22;11010;49.548;11.926;2023-04-28T03:50:25;9.20;99.90
21698;DHT22;11010;49.548;11.926;2023-04-28T03:52:53;9.30;99.90
21698;DHT22;11010;49.548;11.926;2023-04-28T03:55:21;9.40;99.90
21698;DHT22;11010;49.548;11.926;2023-04-28T03:57:50;9.40;99.90
21698;DHT22;11010;49.548;11.926;2023-04-28T04:00:17;9.50;99.90
21698;DHT22;11010;49.548;11.926;2023-04-28T04:02:46;9.50;99.90
21698;DHT22;11010;49.548;11.926;2023-04-28T04:05:15;9.50;99.90
21698;DHT22;11010;49.548;11.926;2023-04-28T04:07:43;9.60;99.90
21698;DHT22;11010;49.548;11.926;2023-04-28T04:10:11;9.50;99.90
21698;DHT22;11010;49.548;11.926;2023-04-28T04:12:42;9.40;99.90
21698;DHT22;11010;49.548;11.926;2023-04-28T04:15:10;9.20;99.90
21698;DHT22;11010;49.548;11.926;2023-04-28T04:17:38;9.10;99.90
21698;DHT22;11010;49.548;11.926;2023-04-28T04:20:06;8.90;99.90
21698;DHT22;11010;49.548;11.926;2023-04-28T04:22:33;8.90;99.90
21698;DHT22;11010;49.548;11.926;2023-04-28T04:25:01;9.10;99.90
21698;DHT22;11010;49.548;11.926;2023-04-28T04:27:29;9.10;99.90
21698;DHT22;11010;49.548;11.926;2023-04-28T04:29:56;9.10;99.90
21698;DHT22;11010;49.548;11.926;2023-04-28T04:32:25;9.30;99.90
21698;DHT22;11010;49.548;11.926;2023-04-28T04:34:53;9.30;99.90
21698;DHT22;11010;49.548;11.926;2023-04-28T04:37:20;9.30;99.90
21698;DHT22;11010;49.548;11.926;2023-04-28T04:39:54;9.10;99.90
21698;DHT22;11010;49.548;11.926;2023-04-28T04:42:21;9.10;99.90
21698;DHT22;11010;49.548;11.926;2023-04-28T04:45:06;9.10;99.90
21698;DHT22;11010;49.548;11.926;2023-04-28T04:47:34;9.30;99.90
21698;DHT22;11010;49.548;11.926;2023-04-28T04:50:02;9.40;99.90
21698;DHT22;11010;49.548;11.926;2023-04-28T04:52:29;9.40;99.90
21698;DHT22;11010;49.548;11.926;2023-04-28T04:54:56;9.30;99.90
21698;DHT22;11010;49.548;11.926;2023-04-28T04:57:24;9.20;99.90
21698;DHT22;11010;49.548;11.926;2023-04-28T05:00:27;9.30;99.90
21698;DHT22;11010;49.548;11.926;2023-04-28T05:02:54;9.40;99.90
21698;DHT22;11010;49.548;11.926;2023-04-28T05:05:22;9.30;99.90
21698;DHT22;11010;49.548;11.926;2023-04-28T05:08:02;9.20;99.90
21698;DHT22;11010;49.548;11.926;2023-04-28T05:10:29;9.30;99.90
21698;DHT22;11010;49.548;11.926;2023-04-28T05:12:58;9.40;99.90
21698;DHT22;11010;49.548;11.926;2023-04-28T05:15:25;9.40;99.90
21698;DHT22;11010;49.548;11.926;2023-04-28T05:18:22;9.50;99.90
21698;DHT22;11010;49.548;11.926;2023-04-28T05:20:49;9.50;99.90
21698;DHT22;11010;49.548;11.926;2023-04-28T05:23:18;9.50;99.90
21698;DHT22;11010;49.548;11.926;2023-04-28T05:25:46;9.70;99.90
21698;DHT22;11010;49.548;11.926;2023-04-28T05:28:13;9.60;99.90
21698;DHT22;11010;49.548;11.926;2023-04-28T05:30:42;9.50;99.90
21698;DHT22;11010;49.548;11.926;2023-04-28T05:33:11;9.60;99.90
21698;DHT22;11010;49.548;11.926;2023-04-28T05:35:40;9.70;99.90
21698;DHT22;11010;49.548;11.926;2023-04-28T05:38:07;9.80;99.90
21698;DHT22;11010;49.548;11.926;2023-04-28T05:40:35;9.80;99.90
21698;DHT22;11010;49.548;11.926;2023-04-28T05:43:02;9.80;99.90
21698;DHT22;11010;49.548;11.926;2023-04-28T05:45:29;9.60;99.90
21698;DHT22;11010;49.548;11.926;2023-04-28T05:47:57;9.40;99.90
21698;DHT22;11010;49.548;11.926;2023-04-28T05:50:24;9.50;99.90
21698;DHT22;11010;49.548;11.926;2023-04-28T05:52:52;9.40;99.90
21698;DHT22;11010;49.548;11.926;2023-04-28T05:55:19;9.60;99.90
21698;DHT22;11010;49.548;11.926;2023-04-28T05:57:47;9.60;99.90
21698;DHT22;11010;49.548;11.926;2023-04-28T06:00:19;9.60;99.90
21698;DHT22;11010;49.548;11.926;2023-04-28T06:02:50;9.70;99.90
21698;DHT22;11010;49.548;11.926;2023-04-28T06:05:19;9.70;99.90
21698;DHT22;11010;49.548;11.926;2023-04-28T06:07:49;9.80;99.90
21698;DHT22;11010;49.548;11.926;2023-04-28T06:10:20;9.70;99.90
21698;DHT22;11010;49.548;11.926;2023-04-28T06:12:47;9.90;99.90
21698;DHT22;11010;49.548;11.926;2023-04-28T06:15:14;9.90;99.90
21698;DHT22;11010;49.548;11.926;2023-04-28T06:17:42;9.90;99.90
21698;DHT22;11010;49.548;11.926;2023-04-28T06:20:09;10.00;99.90
21698;DHT22;11010;49.548;11.926;2023-04-28T06:22:39;10.00;99.90
21698;DHT22;11010;49.548;11.926;2023-04-28T06:25:07;10.10;99.90
21698;DHT22;11010;49.548;11.926;2023-04-28T06:27:42;10.10;99.90
21698;DHT22;11010;49.548;11.926;2023-04-28T06:30:12;10.10;99.90
21698;DHT22;11010;49.548;11.926;2023-04-28T06:32:39;10.10;99.90
21698;DHT22;11010;49.548;11.926;2023-04-28T06:35:06;10.10;99.90
21698;DHT22;11010;49.548;11.926;2023-04-28T06:37:34;10.10;99.90
21698;DHT22;11010;49.548;11.926;2023-04-28T06:40:02;10.20;99.90
21698;DHT22;11010;49.548;11.926;2023-04-28T06:42:29;10.20;99.90
21698;DHT22;11010;49.548;11.926;2023-04-28T06:45:04;10.20;99.90
21698;DHT22;11010;49.548;11.926;2023-04-28T06:47:32;10.20;99.90
21698;DHT22;11010;49.548;11.926;2023-04-28T06:49:59;10.30;99.90
21698;DHT22;11010;49.548;11.926;2023-04-28T06:52:32;10.40;99.90
21698;DHT22;11010;49.548;11.926;2023-04-28T06:55:08;10.40;99.90
21698;DHT22;11010;49.548;11.926;2023-04-28T06:57:36;10.40;99.90
21698;DHT22;11010;49.548;11.926;2023-04-28T07:00:08;10.40;99.90
21698;DHT22;11010;49.548;11.926;2023-04-28T07:02:36;10.50;99.90
21698;DHT22;11010;49.548;11.926;2023-04-28T07:05:04;10.50;99.90
21698;DHT22;11010;49.548;11.926;2023-04-28T07:07:31;10.50;99.90
21698;DHT22;11010;49.548;11.926;2023-04-28T07:09:58;10.60;99.90
21698;DHT22;11010;49.548;11.926;2023-04-28T07:12:27;10.50;99.90
21698;DHT22;11010;49.548;11.926;2023-04-28T07:14:54;10.60;99.90
21698;DHT22;11010;49.548;11.926;2023-04-28T07:17:22;10.60;99.90
21698;DHT22;11010;49.548;11.926;2023-04-28T07:19:49;10.60;99.90
21698;DHT22;11010;49.548;11.926;2023-04-28T07:22:16;10.70;99.90
21698;DHT22;11010;49.548;11.926;2023-04-28T07:24:44;10.70;99.90
21698;DHT22;11010;49.548;11.926;2023-04-28T07:27:11;10.60;99.90
21698;DHT22;11010;49.548;11.926;2023-04-28T07:29:38;10.70;99.90
21698;DHT22;11010;49.548;11.926;2023-04-28T07:32:05;10.60;99.90
21698;DHT22;11010;49.548;11.926;2023-04-28T07:34:36;10.70;99.90
21698;DHT22;11010;49.548;11.926;2023-04-28T07:37:04;10.80;99.90
21698;DHT22;11010;49.548;11.926;2023-04-28T07:39:32;10.90;99.90
21698;DHT22;11010;49.548;11.926;2023-04-28T07:42:01;10.90;99.90
21698;DHT22;11010;49.548;11.926;2023-04-28T07:44:30;10.90;99.90
21698;DHT22;11010;49.548;11.926;2023-04-28T07:47:01;11.00;99.90
21698;DHT22;11010;49.548;11.926;2023-04-28T07:49:28;11.10;99.90
21698;DHT22;11010;49.548;11.926;2023-04-28T07:51:56;11.10;99.90
21698;DHT22;11010;49.548;11.926;2023-04-28T07:54:23;10.90;99.90
21698;DHT22;11010;49.548;11.926;2023-04-28T07:56:50;10.80;99.90
21698;DHT22;11010;49.548;11.926;2023-04-28T07:59:18;10.80;99.90
21698;DHT22;11010;49.548;11.926;2023-04-28T08:01:45;10.80;99.90
21698;DHT22;11010;49.548;11.926;2023-04-28T08:04:12;10.90;99.90
21698;DHT22;11010;49.548;11.926;2023-04-28T08:06:40;10.90;99.90
21698;DHT22;11010;49.548;11.926;2023-04-28T08:09:07;11.00;99.90
21698;DHT22;11010;49.548;11.926;2023-04-28T08:11:35;10.90;99.90
21698;DHT22;11010;49.548;11.926;2023-04-28T08:14:02;10.90;99.90
21698;DHT22;11010;49.548;11.926;2023-04-28T08:16:30;10.80;99.90
21698;DHT22;11010;49.548;11.926;2023-04-28T08:18:58;10.80;99.90
21698;DHT22;11010;49.548;11.926;2023-04-28T08:21:26;10.80;99.90
21698;DHT22;11010;49.548;11.926;2023-04-28T08:23:53;10.80;99.90
21698;DHT22;11010;49.548;11.926;2023-04-28T08:26:20;10.80;99.90
21698;DHT22;11010;49.548;11.926;2023-04-28T08:28:47;10.80;99.90
21698;DHT22;11010;49.548;11.926;2023-04-28T08:31:15;10.70;99.90
21698;DHT22;11010;49.548;11.926;2023-04-28T08:33:42;10.60;99.90
21698;DHT22;11010;49.548;11.926;2023-04-28T08:36:10;10.60;99.90
21698;DHT22;11010;49.548;11.926;2023-04-28T08:38:37;10.60;99.90
21698;DHT22;11010;49.548;11.926;2023-04-28T08:41:05;10.60;99.90
21698;DHT22;11010;49.548;11.926;2023-04-28T08:43:35;10.50;99.90
21698;DHT22;11010;49.548;11.926;2023-04-28T08:46:06;10.50;99.90
21698;DHT22;11010;49.548;11.926;2023-04-28T08:48:43;10.50;99.90
21698;DHT22;11010;49.548;11.926;2023-04-28T08:51:27;10.40;99.90
21698;DHT22;11010;49.548;11.926;2023-04-28T08:53:58;10.50;99.90
21698;DHT22;11010;49.548;11.926;2023-04-28T08:56:32;10.50;99.90
21698;DHT22;11010;49.548;11.926;2023-04-28T08:59:03;10.50;99.90
21698;DHT22;11010;49.548;11.926;2023-04-28T09:01:31;10.50;99.90
21698;DHT22;11010;49.548;11.926;2023-04-28T09:04:02;10.40;99.90
21698;DHT22;11010;49.548;11.926;2023-04-28T09:06:37;10.50;99.90
21698;DHT22;11010;49.548;11.926;2023-04-28T09:09:24;10.50;99.90
21698;DHT22;11010;49.548;11.926;2023-04-28T09:12:00;10.50;99.90
21698;DHT22;11010;49.548;11.926;2023-04-28T09:14:28;10.50;99.90
21698;DHT22;11010;49.548;11.926;2023-04-28T09:16:56;10.60;99.90
21698;DHT22;11010;49.548;11.926;2023-04-28T09:19:24;10.70;99.90
21698;DHT22;11010;49.548;11.926;2023-04-28T09:21:59;10.70;99.90
21698;DHT22;11010;49.548;11.926;2023-04-28T09:24:39;10.50;99.90
21698;DHT22;11010;49.548;11.926;2023-04-28T09:27:09;10.70;99.90
21698;DHT22;11010;49.548;11.926;2023-04-28T09:29:38;10.60;99.90
21698;DHT22;11010;49.548;11.926;2023-04-28T09:32:19;10.60;99.90
21698;DHT22;11010;49.548;11.926;2023-04-28T09:34:50;10.70;99.90
21698;DHT22;11010;49.548;11.926;2023-04-28T09:37:22;10.70;99.90
21698;DHT22;11010;49.548;11.926;2023-04-28T09:39:51;10.40;99.90
21698;DHT22;11010;49.548;11.926;2023-04-28T09:47:40;10.40;99.90
21698;DHT22;11010;49.548;11.926;2023-04-28T09:50:09;10.50;99.90
21698;DHT22;11010;49.548;11.926;2023-04-28T09:52:40;10.40;99.90
21698;DHT22;11010;49.548;11.926;2023-04-28T09:55:08;10.50;99.90
21698;DHT22;11010;49.548;11.926;2023-04-28T09:57:35;10.50;99.90
21698;DHT22;11010;49.548;11.926;2023-04-28T10:00:04;10.60;99.90
21698;DHT22;11010;49.548;11.926;2023-04-28T10:02:36;10.60;99.90
21698;DHT22;11010;49.548;11.926;2023-04-28T10:05:07;10.60;99.90
21698;DHT22;11010;49.548;11.926;2023-04-28T10:07:36;10.50;99.90
21698;DHT22;11010;49.548;11.926;2023-04-28T10:10:06;10.40;99.90
21698;DHT22;11010;49.548;11.926;2023-04-28T10:12:34;10.40;99.90
21698;DHT22;11010;49.548;11.926;2023-04-28T10:15:06;10.50;99.90
21698;DHT22;11010;49.548;11.926;2023-04-28T10:17:33;10.60;99.90
21698;DHT22;11010;49.548;11.926;2023-04-28T10:20:03;10.60;99.90
21698;DHT22;11010;49.548;11.926;2023-04-28T10:25:34;10.50;99.90
21698;DHT22;11010;49.548;11.926;2023-04-28T10:28:06;10.50;99.90
21698;DHT22;11010;49.548;11.926;2023-04-28T10:30:34;10.60;99.90
21698;DHT22;11010;49.548;11.926;2023-04-28T10:40:45;10.50;99.90
21698;DHT22;11010;49.548;11.926;2023-04-28T10:56:26;10.40;99.90
21698;DHT22;11010;49.548;11.926;2023-04-28T10:58:57;10.40;99.90
21698;DHT22;11010;49.548;11.926;2023-04-28T11:01:26;10.40;99.90
21698;DHT22;11010;49.548;11.926;2023-04-28T11:03:59;10.50;99.90
21698;DHT22;11010;49.548;11.926;2023-04-28T11:06:29;10.60;99.90
21698;DHT22;11010;49.548;11.926;2023-04-28T11:21:58;10.50;99.90
21698;DHT22;11010;49.548;11.926;2023-04-28T11:24:27;10.60;99.90
21698;DHT22;11010;49.548;11.926;2023-04-28T11:26:58;10.60;99.90
21698;DHT22;11010;49.548;11.926;2023-04-28T11:29:38;10.60;99.90
21698;DHT22;11010;49.548;11.926;2023-04-28T11:32:08;10.60;99.90
21698;DHT22;11010;49.548;11.926;2023-04-28T11:34:36;10.60;99.90
21698;DHT22;11010;49.548;11.926;2023-04-28T11:37:03;10.60;99.90
21698;DHT22;11010;49.548;11.926;2023-04-28T11:39:34;10.60;99.90
21698;DHT22;11010;49.548;11.926;2023-04-28T11:42:08;10.50;99.90
21698;DHT22;11010;49.548;11.926;2023-04-28T11:44:36;10.60;99.90
21698;DHT22;11010;49.548;11.926;2023-04-28T11:47:05;10.50;99.90
21698;DHT22;11010;49.548;11.926;2023-04-28T11:49:44;10.40;99.90
21698;DHT22;11010;49.548;11.926;2023-04-28T11:52:11;10.50;99.90
21698;DHT22;11010;49.548;11.926;2023-04-28T11:54:39;10.60;99.90
21698;DHT22;11010;49.548;11.926;2023-04-28T11:57:20;10.60;99.90
21698;DHT22;11010;49.548;11.926;2023-04-28T11:59:48;10.50;99.90
21698;DHT22;11010;49.548;11.926;2023-04-28T12:02:26;10.50;99.90
21698;DHT22;11010;49.548;11.926;2023-04-28T12:04:55;10.50;99.90
21698;DHT22;11010;49.548;11.926;2023-04-28T12:07:42;10.60;99.90
21698;DHT22;11010;49.548;11.926;2023-04-28T12:10:13;10.50;99.90
21698;DHT22;11010;49.548;11.926;2023-04-28T12:12:45;10.50;99.90
21698;DHT22;11010;49.548;11.926;2023-04-28T12:15:19;10.60;99.90
21698;DHT22;11010;49.548;11.926;2023-04-28T12:17:48;10.50;99.90
21698;DHT22;11010;49.548;11.926;2023-04-28T12:20:37;10.40;99.90
21698;DHT22;11010;49.548;11.926;2023-04-28T12:23:05;10.40;99.90
21698;DHT22;11010;49.548;11.926;2023-04-28T12:25:45;10.40;99.90
21698;DHT22;11010;49.548;11.926;2023-04-28T12:28:14;10.40;99.90
21698;DHT22;11010;49.548;11.926;2023-04-28T12:30:41;10.50;99.90
21698;DHT22;11010;49.548;11.926;2023-04-28T12:33:26;10.50;99.90
21698;DHT22;11010;49.548;11.926;2023-04-28T12:35:55;10.50;99.90
21698;DHT22;11010;49.548;11.926;2023-04-28T12:38:22;10.50;99.90
21698;DHT22;11010;49.548;11.926;2023-04-28T12:40:50;10.50;99.90
21698;DHT22;11010;49.548;11.926;2023-04-28T12:43:18;10.50;99.90
21698;DHT22;11010;49.548;11.926;2023-04-28T12:45:45;10.50;99.90
21698;DHT22;11010;49.548;11.926;2023-04-28T12:48:12;10.50;99.90
21698;DHT22;11010;49.548;11.926;2023-04-28T12:50:39;10.50;99.90
21698;DHT22;11010;49.548;11.926;2023-04-28T12:53:06;10.60;99.90
21698;DHT22;11010;49.548;11.926;2023-04-28T12:55:33;10.70;99.90
21698;DHT22;11010;49.548;11.926;2023-04-28T12:58:00;10.70;99.90
21698;DHT22;11010;49.548;11.926;2023-04-28T13:00:28;10.70;99.90
21698;DHT22;11010;49.548;11.926;2023-04-28T13:02:55;10.80;99.90
21698;DHT22;11010;49.548;11.926;2023-04-28T13:05:24;10.80;99.90
21698;DHT22;11010;49.548;11.926;2023-04-28T13:07:52;10.80;99.90
21698;DHT22;11010;49.548;11.926;2023-04-28T13:10:20;10.80;99.90
21698;DHT22;11010;49.548;11.926;2023-04-28T13:12:49;10.80;99.90
21698;DHT22;11010;49.548;11.926;2023-04-28T13:15:17;10.80;99.90
21698;DHT22;11010;49.548;11.926;2023-04-28T13:17:44;10.80;99.90
21698;DHT22;11010;49.548;11.926;2023-04-28T13:20:12;10.80;99.90
21698;DHT22;11010;49.548;11.926;2023-04-28T13:22:39;10.80;99.90
21698;DHT22;11010;49.548;11.926;2023-04-28T13:25:08;10.90;99.90
21698;DHT22;11010;49.548;11.926;2023-04-28T13:27:37;10.80;99.90
21698;DHT22;11010;49.548;11.926;2023-04-28T13:30:08;10.80;99.90
21698;DHT22;11010;49.548;11.926;2023-04-28T13:32:35;10.80;99.90
21698;DHT22;11010;49.548;11.926;2023-04-28T13:35:02;10.80;99.90
21698;DHT22;11010;49.548;11.926;2023-04-28T13:37:29;10.80;99.90
21698;DHT22;11010;49.548;11.926;2023-04-28T13:39:57;10.80;99.90
21698;DHT22;11010;49.548;11.926;2023-04-28T13:42:25;10.90;99.90
21698;DHT22;11010;49.548;11.926;2023-04-28T13:44:52;10.80;99.90
21698;DHT22;11010;49.548;11.926;2023-04-28T13:47:19;10.90;99.90
21698;DHT22;11010;49.548;11.926;2023-04-28T13:49:47;10.90;99.90
21698;DHT22;11010;49.548;11.926;2023-04-28T13:52:15;10.90;99.90
21698;DHT22;11010;49.548;11.926;2023-04-28T13:54:43;10.90;99.90
21698;DHT22;11010;49.548;11.926;2023-04-28T13:57:11;10.90;99.90
21698;DHT22;11010;49.548;11.926;2023-04-28T13:59:39;10.90;99.90
21698;DHT22;11010;49.548;11.926;2023-04-28T14:02:07;11.00;99.90
21698;DHT22;11010;49.548;11.926;2023-04-28T14:04:35;11.00;99.90
21698;DHT22;11010;49.548;11.926;2023-04-28T14:07:03;11.00;99.90
21698;DHT22;11010;49.548;11.926;2023-04-28T14:09:30;11.00;99.90
21698;DHT22;11010;49.548;11.926;2023-04-28T14:11:58;11.10;99.90
21698;DHT22;11010;49.548;11.926;2023-04-28T14:14:25;11.10;99.90
21698;DHT22;11010;49.548;11.926;2023-04-28T14:16:52;11.10;99.90
21698;DHT22;11010;49.548;11.926;2023-04-28T14:19:19;11.00;99.90
21698;DHT22;11010;49.548;11.926;2023-04-28T14:21:46;11.10;99.90
21698;DHT22;11010;49.548;11.926;2023-04-28T14:24:14;11.00;99.90
21698;DHT22;11010;49.548;11.926;2023-04-28T14:26:42;11.10;99.90
21698;DHT22;11010;49.548;11.926;2023-04-28T14:29:09;11.10;99.90
21698;DHT22;11010;49.548;11.926;2023-04-28T14:31:37;11.10;99.90
21698;DHT22;11010;49.548;11.926;2023-04-28T14:34:04;11.10;99.90
21698;DHT22;11010;49.548;11.926;2023-04-28T14:36:32;11.10;99.90
21698;DHT22;11010;49.548;11.926;2023-04-28T14:38:59;11.10;99.90
21698;DHT22;11010;49.548;11.926;2023-04-28T14:41:26;11.10;99.90
21698;DHT22;11010;49.548;11.926;2023-04-28T14:43:54;11.10;99.90
21698;DHT22;11010;49.548;11.926;2023-04-28T14:46:21;11.10;99.90
21698;DHT22;11010;49.548;11.926;2023-04-28T14:48:49;11.10;99.90
21698;DHT22;11010;49.548;11.926;2023-04-28T14:51:17;11.20;99.90
21698;DHT22;11010;49.548;11.926;2023-04-28T14:53:44;11.20;99.90
21698;DHT22;11010;49.548;11.926;2023-04-28T14:56:11;11.20;99.90
21698;DHT22;11010;49.548;11.926;2023-04-28T14:58:46;11.20;99.90
21698;DHT22;11010;49.548;11.926;2023-04-28T15:01:14;11.20;99.90
21698;DHT22;11010;49.548;11.926;2023-04-28T15:03:42;11.20;99.90
21698;DHT22;11010;49.548;11.926;2023-04-28T15:06:10;11.20;99.90
21698;DHT22;11010;49.548;11.926;2023-04-28T15:08:37;11.20;99.90
21698;DHT22;11010;49.548;11.926;2023-04-28T15:11:06;11.20;99.90
21698;DHT22;11010;49.548;11.926;2023-04-28T15:13:33;11.20;99.90
21698;DHT22;11010;49.548;11.926;2023-04-28T15:16:01;11.20;99.90
21698;DHT22;11010;49.548;11.926;2023-04-28T15:18:29;11.20;99.90
21698;DHT22;11010;49.548;11.926;2023-04-28T15:20:56;11.20;99.90
21698;DHT22;11010;49.548;11.926;2023-04-28T15:23:24;11.20;99.90
21698;DHT22;11010;49.548;11.926;2023-04-28T15:25:51;11.30;99.90
21698;DHT22;11010;49.548;11.926;2023-04-28T15:28:20;11.20;99.90
21698;DHT22;11010;49.548;11.926;2023-04-28T15:30:47;11.20;99.90
21698;DHT22;11010;49.548;11.926;2023-04-28T15:33:15;11.20;99.90
21698;DHT22;11010;49.548;11.926;2023-04-28T15:35:45;11.30;99.90
21698;DHT22;11010;49.548;11.926;2023-04-28T15:38:12;11.30;99.90
21698;DHT22;11010;49.548;11.926;2023-04-28T15:40:40;11.30;99.90
21698;DHT22;11010;49.548;11.926;2023-04-28T15:43:08;11.30;99.90
21698;DHT22;11010;49.548;11.926;2023-04-28T15:45:35;11.30;99.90
21698;DHT22;11010;49.548;11.926;2023-04-28T15:48:03;11.40;99.90
21698;DHT22;11010;49.548;11.926;2023-04-28T15:50:32;11.40;99.90
21698;DHT22;11010;49.548;11.926;2023-04-28T15:52:59;11.40;99.90
21698;DHT22;11010;49.548;11.926;2023-04-28T15:55:27;11.50;99.90
21698;DHT22;11010;49.548;11.926;2023-04-28T15:57:54;11.60;99.90
21698;DHT22;11010;49.548;11.926;2023-04-28T16:00:22;11.60;99.90
21698;DHT22;11010;49.548;11.926;2023-04-28T16:02:49;11.60;99.90
21698;DHT22;11010;49.548;11.926;2023-04-28T16:05:16;11.60;99.90
21698;DHT22;11010;49.548;11.926;2023-04-28T16:07:44;11.60;99.90
21698;DHT22;11010;49.548;11.926;2023-04-28T16:10:12;11.60;99.90
21698;DHT22;11010;49.548;11.926;2023-04-28T16:12:40;11.60;99.90
21698;DHT22;11010;49.548;11.926;2023-04-28T16:15:09;11.60;99.90
21698;DHT22;11010;49.548;11.926;2023-04-28T16:17:38;11.60;99.90